This is the latest recevied weather packets stored in our database for station/object KM6YFK-13. If no packets are shown the sender has not sent any weather packets the latest 10 day(s).
| Time | Temp. | Humidity | Pressure | Rain* | Wind** | Luminosity | Snow |
|---|---|---|---|---|---|---|---|
| 1777467808 | 22.22° C | 90% | 1018.1 hPa | 0 mm | - | 335 W/m² | - |
| 1777467510 | 21.67° C | 92% | 1018.3 hPa | 0 mm | - | 327 W/m² | - |
| 1777467208 | 21.11° C | 93% | 1017.8 hPa | 0 mm | - | 332 W/m² | - |
| 1777466908 | 20.56° C | 95% | 1018.1 hPa | 0 mm | - | 309 W/m² | - |
| 1777466607 | 20.56° C | 95% | 1018.5 hPa | 0 mm | - | 269 W/m² | - |
| 1777466308 | 20.56° C | 96% | 1018.8 hPa | 0 mm | - | 117 W/m² | - |
| 1777466009 | 20.56° C | 96% | 1018.8 hPa | 0 mm | - | 70 W/m² | - |
| 1777465708 | 20.56° C | 97% | 1018.6 hPa | 0 mm | - | 75 W/m² | - |
| 1777465408 | 20.56° C | 98% | 1018.4 hPa | 0 mm | - | 122 W/m² | - |
| 1777465107 | 20° C | 98% | 1018.1 hPa | 0 mm | - | 147 W/m² | - |
| 1777464811 | 20° C | 98% | 1017.9 hPa | 0 mm | - | 157 W/m² | - |
| 1777464508 | 19.44° C | 98% | 1017.7 hPa | 0 mm | - | 166 W/m² | - |
| 1777464208 | 19.44° C | 99% | 1017.6 hPa | 0 mm | - | 118 W/m² | - |
| 1777463907 | 19.44° C | 99% | 1017.4 hPa | 0 mm | - | 123 W/m² | - |
| 1777463607 | 18.89° C | 99% | 1017.3 hPa | 0 mm | - | 108 W/m² | - |
| 1777463308 | 18.89° C | 99% | 1017.3 hPa | 0 mm | - | 109 W/m² | - |
| 1777463008 | 18.89° C | 99% | 1017.2 hPa | 0 mm | - | 84 W/m² | - |
| 1777462708 | 18.89° C | 99% | 1017.2 hPa | 0 mm | - | 62 W/m² | - |
| 1777462408 | 18.33° C | 99% | 1017.1 hPa | 0 mm | - | 50 W/m² | - |
| 1777462108 | 18.33° C | 99% | 1017.1 hPa | 0 mm | - | 41 W/m² | - |
| 1777461808 | 18.33° C | 99% | 1017.1 hPa | 0 mm | - | 33 W/m² | - |
| 1777461508 | 18.33° C | 99% | 1017.1 hPa | 0 mm | - | 24 W/m² | - |
| 1777461209 | 18.33° C | 99% | 1016.9 hPa | 0 mm | - | 19 W/m² | - |
| 1777460909 | 18.33° C | 99% | 1016.7 hPa | 0 mm | - | 15 W/m² | - |
| 1777460608 | 18.33° C | 99% | 1016.7 hPa | 0 mm | - | 12 W/m² | - |
* Rain latest hour (hover to see other rain measurements)
** Current wind speed in m/s (hover to see current wind gust speed)